Time;durP1;ratioP1;P1;durP2;ratioP2;P2;SDS_P1;SDS_P2;PMS_P1;PMS_P2;Temp;Humidity;BMP_temperature;BMP_pressure;BME280_temperature;BME280_humidity;BME280_pressure;Samples;Min_cycle;Max_cycle;Signal;HPM_P1;HPM_P2
2023/02/14 00:02:06;;;;;;;4.70;4.17;;;;;;;;;;5021550;28;20171;-54
2023/02/14 00:04:32;;;;;;;4.20;3.80;;;;;;;;;;5022694;28;20238;-55
2023/02/14 00:06:58;;;;;;;6.33;4.47;;;;;;;;;;5016123;28;20174;-54
2023/02/14 00:09:24;;;;;;;4.10;3.60;;;;;;;;;;5022298;28;20190;-53
2023/02/14 00:11:50;;;;;;;4.47;4.00;;;;;;;;;;5022523;28;20184;-55
2023/02/14 00:17:01;;;;;;;4.67;3.90;;;;;;;;;;5019228;28;20189;-54
2023/02/14 00:19:27;;;;;;;4.63;4.20;;;;;;;;;;5023286;28;20178;-54
2023/02/14 00:21:53;;;;;;;4.30;3.90;;;;;;;;;;5021025;28;20174;-54
2023/02/14 00:24:21;;;;;;;4.23;3.53;;;;;;;;;;5021649;28;20190;-55
2023/02/14 00:26:47;;;;;;;4.07;3.50;;;;;;;;;;5019971;28;20186;-55
2023/02/14 00:29:14;;;;;;;3.97;3.50;;;;;;;;;;5021298;28;20569;-54
2023/02/14 00:31:41;;;;;;;3.70;3.40;;;;;;;;;;5023142;28;20189;-55
2023/02/14 00:34:07;;;;;;;4.73;4.10;;;;;;;;;;5019746;28;20206;-54
2023/02/14 00:36:33;;;;;;;4.37;3.50;;;;;;;;;;5016566;28;20183;-54
2023/02/14 00:42:03;;;;;;;4.27;3.50;;;;;;;;;;5014606;28;20231;-55
2023/02/14 00:44:29;;;;;;;4.20;3.80;;;;;;;;;;5016322;28;20273;-55
2023/02/14 00:46:55;;;;;;;3.80;3.47;;;;;;;;;;5024313;28;20244;-54
2023/02/14 00:49:21;;;;;;;4.60;4.13;;;;;;;;;;5018422;28;20174;-55
2023/02/14 00:51:47;;;;;;;3.93;3.20;;;;;;;;;;5019008;28;20186;-54
2023/02/14 00:54:13;;;;;;;3.93;3.50;;;;;;;;;;5018973;28;20232;-54
2023/02/14 00:56:39;;;;;;;4.13;3.73;;;;;;;;;;5019774;28;20673;-54
2023/02/14 00:59:05;;;;;;;4.30;3.53;;;;;;;;;;5020037;28;20724;-54
2023/02/14 01:01:31;;;;;;;5.23;4.20;;;;;;;;;;5017479;28;20174;-55
2023/02/14 01:03:58;;;;;;;3.47;3.17;;;;;;;;;;5013377;28;20230;-54
2023/02/14 01:06:24;;;;;;;4.50;3.50;;;;;;;;;;5017128;28;20178;-55
2023/02/14 01:08:50;;;;;;;3.57;3.23;;;;;;;;;;5021962;28;20243;-54
2023/02/14 01:11:18;;;;;;;4.10;3.70;;;;;;;;;;5018088;28;20197;-55
2023/02/14 01:13:45;;;;;;;4.03;3.50;;;;;;;;;;5012855;28;20689;-55
2023/02/14 01:16:16;;;;;;;4.27;3.87;;;;;;;;;;5020593;28;20178;-55
2023/02/14 01:18:42;;;;;;;3.77;3.37;;;;;;;;;;5017629;28;20300;-55
2023/02/14 01:21:26;;;;;;;3.93;3.40;;;;;;;;;;5025454;28;20542;-55
2023/02/14 01:23:53;;;;;;;3.70;3.40;;;;;;;;;;5017299;28;20235;-55
2023/02/14 01:26:20;;;;;;;4.30;3.23;;;;;;;;;;5019757;28;20186;-55
2023/02/14 01:28:47;;;;;;;3.90;3.33;;;;;;;;;;5016031;28;20185;-54
2023/02/14 01:31:14;;;;;;;3.63;3.20;;;;;;;;;;5016988;28;20272;-55
2023/02/14 01:33:41;;;;;;;3.43;2.97;;;;;;;;;;5021393;28;20784;-54
2023/02/14 01:36:14;;;;;;;3.43;3.13;;;;;;;;;;5021197;28;20182;-55
2023/02/14 01:38:40;;;;;;;3.50;3.20;;;;;;;;;;5023951;28;20575;-55
2023/02/14 01:41:06;;;;;;;3.30;3.00;;;;;;;;;;5018786;28;20177;-55
2023/02/14 01:43:32;;;;;;;3.67;3.37;;;;;;;;;;5019922;28;20201;-54
2023/02/14 01:45:58;;;;;;;3.17;2.87;;;;;;;;;;5017152;28;20554;-55
2023/02/14 01:48:24;;;;;;;3.63;3.27;;;;;;;;;;5021219;28;20210;-55
2023/02/14 01:50:51;;;;;;;4.10;3.63;;;;;;;;;;5014894;28;20192;-53
2023/02/14 01:53:21;;;;;;;3.90;2.93;;;;;;;;;;5013947;28;20206;-55
2023/02/14 01:55:50;;;;;;;3.73;3.30;;;;;;;;;;5019532;28;20198;-55
2023/02/14 01:58:21;;;;;;;3.73;3.30;;;;;;;;;;5016004;28;20245;-54
2023/02/14 02:01:18;;;;;;;3.40;3.10;;;;;;;;;;5019783;28;20182;-54
2023/02/14 02:03:54;;;;;;;3.63;3.20;;;;;;;;;;5020627;28;20983;-54
2023/02/14 02:06:28;;;;;;;4.40;3.07;;;;;;;;;;5018202;28;20177;-54
2023/02/14 02:09:23;;;;;;;3.40;3.00;;;;;;;;;;5018836;28;20177;-53
2023/02/14 02:11:49;;;;;;;3.23;2.87;;;;;;;;;;4995460;28;20194;-55
2023/02/14 02:14:19;;;;;;;3.50;3.17;;;;;;;;;;5016896;28;20201;-54
2023/02/14 02:16:48;;;;;;;3.13;2.83;;;;;;;;;;5021253;28;20193;-55
2023/02/14 02:19:36;;;;;;;3.13;2.83;;;;;;;;;;5018833;28;20197;-54
2023/02/14 02:22:08;;;;;;;3.37;2.77;;;;;;;;;;5013430;28;20506;-55
2023/02/14 02:24:39;;;;;;;3.97;3.07;;;;;;;;;;5019038;28;20197;-54
2023/02/14 02:27:19;;;;;;;3.53;3.13;;;;;;;;;;5017305;28;20182;-55
2023/02/14 02:29:51;;;;;;;3.27;2.97;;;;;;;;;;5018001;28;20220;-55
2023/02/14 02:32:40;;;;;;;3.33;3.03;;;;;;;;;;5021323;28;20247;-53
2023/02/14 02:35:12;;;;;;;3.50;3.17;;;;;;;;;;5015426;28;20213;-54
2023/02/14 02:37:38;;;;;;;3.23;2.90;;;;;;;;;;5018975;28;20709;-54
2023/02/14 02:40:07;;;;;;;3.57;3.03;;;;;;;;;;5017018;28;20186;-55
2023/02/14 02:42:52;;;;;;;3.20;2.90;;;;;;;;;;5019066;28;20711;-55
2023/02/14 02:45:21;;;;;;;3.53;2.70;;;;;;;;;;5017289;28;20317;-53
2023/02/14 02:47:54;;;;;;;3.13;2.83;;;;;;;;;;5020697;28;20209;-54
2023/02/14 02:53:42;;;;;;;3.13;2.83;;;;;;;;;;5018469;28;20562;-54
2023/02/14 02:59:16;;;;;;;5.37;3.80;;;;;;;;;;5011670;28;20181;-54
2023/02/14 03:01:43;;;;;;;3.03;2.73;;;;;;;;;;5019294;28;20187;-54
2023/02/14 03:06:56;;;;;;;3.17;2.70;;;;;;;;;;5016756;28;20196;-55
2023/02/14 03:09:28;;;;;;;3.83;3.23;;;;;;;;;;5017529;28;20189;-53
2023/02/14 03:12:17;;;;;;;3.67;3.20;;;;;;;;;;5019782;28;20200;-55
2023/02/14 03:14:51;;;;;;;4.00;3.30;;;;;;;;;;4975844;28;20305;-55
2023/02/14 03:17:38;;;;;;;2.70;2.50;;;;;;;;;;5019121;28;20187;-55
2023/02/14 03:20:16;;;;;;;3.37;3.07;;;;;;;;;;5014835;28;20533;-54
2023/02/14 03:22:48;;;;;;;3.60;2.70;;;;;;;;;;5017420;28;20228;-55
2023/02/14 03:25:33;;;;;;;3.87;3.27;;;;;;;;;;5019823;28;20202;-55
2023/02/14 03:28:07;;;;;;;3.30;2.80;;;;;;;;;;5011606;28;20175;-54
2023/02/14 03:30:53;;;;;;;3.77;3.30;;;;;;;;;;5022548;28;20771;-54
2023/02/14 03:33:27;;;;;;;3.07;2.77;;;;;;;;;;5013913;28;20200;-54
2023/02/14 03:35:53;;;;;;;3.73;3.33;;;;;;;;;;5019380;28;20193;-54
2023/02/14 03:38:21;;;;;;;3.43;3.13;;;;;;;;;;5018782;28;20540;-54
2023/02/14 03:40:53;;;;;;;3.53;3.20;;;;;;;;;;5013683;28;20182;-54
2023/02/14 03:43:24;;;;;;;3.20;2.90;;;;;;;;;;5015305;28;20204;-54
2023/02/14 03:46:09;;;;;;;3.63;3.03;;;;;;;;;;5014425;28;20184;-54
2023/02/14 03:48:36;;;;;;;4.37;3.10;;;;;;;;;;5020264;28;20579;-54
2023/02/14 03:51:03;;;;;;;3.27;2.97;;;;;;;;;;5017530;28;20228;-55
2023/02/14 03:53:31;;;;;;;3.40;3.10;;;;;;;;;;5020526;28;20632;-55
2023/02/14 03:56:00;;;;;;;3.50;2.97;;;;;;;;;;5020578;28;20225;-54
2023/02/14 03:58:27;;;;;;;3.43;3.13;;;;;;;;;;5018322;28;20653;-54
2023/02/14 04:00:57;;;;;;;3.30;3.00;;;;;;;;;;5022058;28;20186;-55
2023/02/14 04:03:25;;;;;;;3.87;3.57;;;;;;;;;;5016879;28;20577;-55
2023/02/14 04:05:51;;;;;;;3.23;2.93;;;;;;;;;;5014917;28;20673;-54
2023/02/14 04:08:24;;;;;;;3.37;3.07;;;;;;;;;;5015934;28;20182;-54
2023/02/14 04:10:51;;;;;;;3.40;3.10;;;;;;;;;;5014927;28;20182;-55
2023/02/14 04:13:17;;;;;;;3.40;2.93;;;;;;;;;;5016811;28;20296;-54
2023/02/14 04:15:43;;;;;;;3.30;3.00;;;;;;;;;;5019641;28;20187;-54
2023/02/14 04:20:53;;;;;;;2.80;2.50;;;;;;;;;;5020330;28;20237;-55
2023/02/14 04:23:19;;;;;;;4.17;3.20;;;;;;;;;;5017494;28;20633;-54
2023/02/14 04:25:46;;;;;;;4.13;3.73;;;;;;;;;;5017374;28;20186;-54
2023/02/14 04:28:12;;;;;;;3.47;3.17;;;;;;;;;;5020474;28;20545;-55
2023/02/14 04:30:38;;;;;;;3.47;3.17;;;;;;;;;;5016226;28;20577;-54
2023/02/14 04:33:06;;;;;;;3.53;3.20;;;;;;;;;;5017051;28;20217;-55
2023/02/14 04:35:33;;;;;;;3.37;3.07;;;;;;;;;;5018269;28;21558;-54
2023/02/14 04:38:00;;;;;;;3.20;2.90;;;;;;;;;;5019546;28;20174;-54
2023/02/14 04:40:26;;;;;;;3.20;2.90;;;;;;;;;;5019331;28;20278;-54
2023/02/14 04:42:52;;;;;;;3.17;2.83;;;;;;;;;;5018903;28;20167;-55
2023/02/14 04:45:18;;;;;;;3.10;2.60;;;;;;;;;;5021467;28;20247;-54
2023/02/14 04:47:45;;;;;;;3.40;3.10;;;;;;;;;;5019424;28;20237;-55
2023/02/14 04:50:11;;;;;;;2.87;2.57;;;;;;;;;;5018416;28;20194;-54
2023/02/14 04:52:37;;;;;;;3.20;2.90;;;;;;;;;;5017807;28;20216;-54
2023/02/14 04:55:03;;;;;;;3.73;2.83;;;;;;;;;;5017107;28;20407;-55
2023/02/14 04:57:29;;;;;;;3.30;3.00;;;;;;;;;;5014173;28;20225;-54
2023/02/14 04:59:55;;;;;;;3.83;2.53;;;;;;;;;;5016925;28;20170;-55
2023/02/14 05:02:21;;;;;;;3.97;3.63;;;;;;;;;;5018576;28;20557;-54
2023/02/14 05:04:47;;;;;;;3.10;2.80;;;;;;;;;;5016004;28;20316;-54
2023/02/14 05:07:14;;;;;;;3.43;3.00;;;;;;;;;;5025307;28;20209;-55
2023/02/14 05:09:40;;;;;;;4.33;2.93;;;;;;;;;;5015084;28;20533;-54
2023/02/14 05:12:06;;;;;;;3.43;3.13;;;;;;;;;;5019847;28;20702;-55
2023/02/14 05:14:32;;;;;;;2.83;2.57;;;;;;;;;;5015156;28;20623;-55
2023/02/14 05:16:58;;;;;;;5.03;3.40;;;;;;;;;;5018406;28;20648;-54
2023/02/14 05:19:24;;;;;;;3.33;3.03;;;;;;;;;;5019075;28;20181;-54
2023/02/14 05:21:50;;;;;;;4.90;3.10;;;;;;;;;;5022010;28;20582;-55
2023/02/14 05:24:16;;;;;;;3.77;3.47;;;;;;;;;;5023735;28;20210;-55
2023/02/14 05:26:42;;;;;;;3.47;2.87;;;;;;;;;;5018168;28;20519;-54
2023/02/14 05:29:08;;;;;;;4.07;3.47;;;;;;;;;;5018007;28;20189;-55
2023/02/14 05:31:34;;;;;;;3.23;2.93;;;;;;;;;;5018473;28;20178;-55
2023/02/14 05:34:00;;;;;;;3.47;3.17;;;;;;;;;;5018025;28;20664;-54
2023/02/14 05:36:26;;;;;;;3.90;2.90;;;;;;;;;;5024133;28;20192;-54
2023/02/14 05:38:55;;;;;;;3.13;2.90;;;;;;;;;;5019980;28;20174;-53
2023/02/14 05:41:21;;;;;;;3.37;2.70;;;;;;;;;;5016851;28;20181;-54
2023/02/14 05:43:48;;;;;;;4.07;3.20;;;;;;;;;;5020574;28;20629;-54
2023/02/14 05:46:14;;;;;;;4.03;3.63;;;;;;;;;;5020689;28;20194;-54
2023/02/14 05:48:40;;;;;;;3.20;2.90;;;;;;;;;;5022109;28;20642;-55
2023/02/14 05:51:07;;;;;;;3.50;3.20;;;;;;;;;;5014213;28;20652;-55
2023/02/14 05:53:33;;;;;;;3.80;2.90;;;;;;;;;;5021107;28;20216;-55
2023/02/14 05:55:59;;;;;;;3.73;2.80;;;;;;;;;;5020242;28;20211;-54
2023/02/14 05:58:25;;;;;;;3.60;3.20;;;;;;;;;;5014746;28;20536;-55
2023/02/14 06:00:52;;;;;;;3.90;3.27;;;;;;;;;;5014927;28;20186;-54
2023/02/14 06:03:18;;;;;;;3.67;3.30;;;;;;;;;;5020044;28;20234;-54
2023/02/14 06:05:44;;;;;;;3.37;3.07;;;;;;;;;;5019462;28;20204;-55
2023/02/14 06:08:10;;;;;;;4.50;3.50;;;;;;;;;;5019583;28;20650;-55
2023/02/14 06:10:36;;;;;;;4.67;3.07;;;;;;;;;;5019937;28;20523;-54
2023/02/14 06:13:07;;;;;;;3.70;3.20;;;;;;;;;;5015548;28;20194;-55
2023/02/14 06:15:33;;;;;;;5.43;3.70;;;;;;;;;;5021865;28;20549;-54
2023/02/14 06:17:59;;;;;;;3.80;3.20;;;;;;;;;;5013523;28;20185;-54
2023/02/14 06:20:26;;;;;;;3.57;3.20;;;;;;;;;;5014105;28;20308;-54
2023/02/14 06:22:53;;;;;;;3.50;3.20;;;;;;;;;;5015853;28;20648;-55
2023/02/14 06:25:19;;;;;;;4.40;4.00;;;;;;;;;;5014373;28;20190;-53
2023/02/14 06:27:45;;;;;;;4.03;3.37;;;;;;;;;;5016760;28;20172;-55
2023/02/14 06:30:11;;;;;;;5.67;5.00;;;;;;;;;;5022607;28;20209;-55
2023/02/14 06:32:38;;;;;;;5.30;4.10;;;;;;;;;;5014744;28;20189;-54
2023/02/14 06:35:04;;;;;;;5.73;4.40;;;;;;;;;;5019576;28;20202;-55
2023/02/14 06:37:30;;;;;;;5.07;4.30;;;;;;;;;;5015623;28;20578;-55
2023/02/14 06:39:56;;;;;;;5.23;4.43;;;;;;;;;;5018145;28;20553;-54
2023/02/14 06:42:22;;;;;;;5.57;4.50;;;;;;;;;;5011261;28;20176;-54
2023/02/14 06:44:48;;;;;;;5.30;4.30;;;;;;;;;;5017628;28;20206;-54
2023/02/14 06:47:14;;;;;;;5.77;4.80;;;;;;;;;;5017889;28;20580;-54
2023/02/14 06:49:40;;;;;;;5.20;4.03;;;;;;;;;;5021538;28;20194;-54
2023/02/14 06:52:06;;;;;;;4.77;4.27;;;;;;;;;;5020934;28;20624;-54
2023/02/14 06:54:32;;;;;;;5.47;4.50;;;;;;;;;;5022018;28;20196;-55
2023/02/14 06:56:59;;;;;;;4.80;4.30;;;;;;;;;;5024847;28;20201;-54
2023/02/14 06:59:25;;;;;;;5.53;4.90;;;;;;;;;;5021136;28;20181;-54
2023/02/14 07:01:51;;;;;;;6.10;4.57;;;;;;;;;;5023393;28;20182;-55
2023/02/14 07:04:17;;;;;;;8.37;5.53;;;;;;;;;;5017031;28;20238;-54
2023/02/14 07:06:44;;;;;;;7.17;4.43;;;;;;;;;;5020516;28;20791;-54
2023/02/14 07:09:10;;;;;;;6.47;5.27;;;;;;;;;;5015684;28;20193;-54
2023/02/14 07:11:36;;;;;;;7.50;5.70;;;;;;;;;;5021664;28;20272;-55
2023/02/14 07:14:02;;;;;;;6.73;5.33;;;;;;;;;;5016475;28;20194;-55
2023/02/14 07:16:29;;;;;;;6.67;5.37;;;;;;;;;;5015908;28;20741;-54
2023/02/14 07:18:55;;;;;;;6.53;5.33;;;;;;;;;;5023456;28;20178;-53
2023/02/14 07:21:21;;;;;;;6.77;5.47;;;;;;;;;;5015702;28;20182;-54
2023/02/14 07:23:48;;;;;;;7.27;5.50;;;;;;;;;;5019155;28;20243;-54
2023/02/14 07:26:16;;;;;;;8.30;6.80;;;;;;;;;;5014264;28;20320;-55
2023/02/14 07:28:43;;;;;;;8.23;6.20;;;;;;;;;;5012459;28;20183;-54
2023/02/14 07:31:10;;;;;;;7.57;6.63;;;;;;;;;;5012854;28;20676;-54
2023/02/14 07:33:36;;;;;;;7.33;5.80;;;;;;;;;;5014801;28;20205;-54
2023/02/14 07:36:05;;;;;;;7.03;6.10;;;;;;;;;;5019232;28;20186;-54
2023/02/14 07:38:31;;;;;;;9.20;6.87;;;;;;;;;;5022960;28;20180;-55
2023/02/14 07:40:57;;;;;;;7.23;6.03;;;;;;;;;;5018895;28;20174;-54
2023/02/14 07:43:23;;;;;;;9.67;7.13;;;;;;;;;;5018877;28;20185;-55
2023/02/14 07:45:49;;;;;;;8.00;6.93;;;;;;;;;;5022684;28;20189;-55
2023/02/14 07:48:15;;;;;;;9.47;7.27;;;;;;;;;;5017390;28;20182;-55
2023/02/14 07:50:41;;;;;;;8.43;7.00;;;;;;;;;;5017065;28;20265;-54
2023/02/14 07:53:07;;;;;;;8.30;6.63;;;;;;;;;;5015551;28;20337;-55
2023/02/14 07:55:33;;;;;;;10.03;7.77;;;;;;;;;;5015398;28;20217;-54
2023/02/14 07:58:00;;;;;;;10.47;7.60;;;;;;;;;;5015524;28;20216;-54
2023/02/14 08:00:26;;;;;;;10.67;7.37;;;;;;;;;;5024300;28;20182;-55
2023/02/14 08:02:52;;;;;;;9.87;8.00;;;;;;;;;;5018697;28;20232;-55
2023/02/14 08:05:18;;;;;;;10.10;8.50;;;;;;;;;;5017339;28;20186;-55
2023/02/14 08:07:47;;;;;;;11.87;8.57;;;;;;;;;;5022732;28;20236;-54
2023/02/14 08:10:13;;;;;;;11.43;8.83;;;;;;;;;;5022258;28;20201;-55
2023/02/14 08:12:58;;;;;;;13.73;8.97;;;;;;;;;;5016869;28;20186;-53
2023/02/14 08:18:10;;;;;;;12.47;9.50;;;;;;;;;;5021525;28;20189;-54
2023/02/14 08:20:36;;;;;;;13.67;9.63;;;;;;;;;;5020388;28;20170;-53
2023/02/14 08:23:02;;;;;;;11.67;9.30;;;;;;;;;;5023200;28;20509;-54
2023/02/14 08:25:28;;;;;;;11.23;8.83;;;;;;;;;;5018043;28;20687;-55
2023/02/14 08:27:54;;;;;;;13.43;9.77;;;;;;;;;;5018980;28;20233;-54
2023/02/14 08:30:20;;;;;;;11.50;9.80;;;;;;;;;;5023066;28;20185;-54
2023/02/14 08:32:46;;;;;;;12.97;10.43;;;;;;;;;;5019746;28;20166;-55
2023/02/14 08:35:13;;;;;;;15.60;10.73;;;;;;;;;;5018497;28;21658;-55
2023/02/14 08:37:39;;;;;;;14.83;10.33;;;;;;;;;;5021711;28;20209;-54
2023/02/14 08:40:05;;;;;;;13.43;10.43;;;;;;;;;;5022360;28;20186;-53
2023/02/14 08:42:31;;;;;;;15.27;10.50;;;;;;;;;;5019943;28;20277;-55
2023/02/14 08:44:57;;;;;;;15.03;11.20;;;;;;;;;;5023834;28;20195;-54
2023/02/14 08:47:23;;;;;;;13.03;10.37;;;;;;;;;;5016874;28;20197;-54
2023/02/14 08:49:49;;;;;;;14.77;10.63;;;;;;;;;;5022086;28;20261;-54
2023/02/14 08:52:16;;;;;;;13.93;10.40;;;;;;;;;;5021061;28;20181;-54
2023/02/14 08:54:42;;;;;;;15.17;10.23;;;;;;;;;;5013042;28;20205;-55
2023/02/14 08:57:08;;;;;;;13.87;10.53;;;;;;;;;;5019413;28;20204;-55
2023/02/14 08:59:34;;;;;;;15.60;11.40;;;;;;;;;;5019358;28;20218;-53
2023/02/14 09:02:00;;;;;;;14.43;10.63;;;;;;;;;;5020925;28;20197;-54
2023/02/14 09:04:26;;;;;;;15.87;11.63;;;;;;;;;;5021227;28;20222;-54
2023/02/14 09:06:52;;;;;;;13.00;10.47;;;;;;;;;;5017199;28;20552;-55
2023/02/14 09:09:18;;;;;;;15.57;11.00;;;;;;;;;;5012054;28;20179;-55
2023/02/14 09:11:44;;;;;;;12.50;10.97;;;;;;;;;;5023372;28;20268;-55
2023/02/14 09:14:10;;;;;;;14.83;10.90;;;;;;;;;;5016656;28;20239;-54
2023/02/14 09:16:36;;;;;;;13.90;10.70;;;;;;;;;;5024256;28;20178;-55
2023/02/14 09:19:02;;;;;;;16.07;12.60;;;;;;;;;;5021931;28;20535;-55
2023/02/14 09:21:29;;;;;;;14.53;10.63;;;;;;;;;;5018675;28;20894;-55
2023/02/14 09:23:56;;;;;;;16.20;11.33;;;;;;;;;;5015837;28;20273;-55
2023/02/14 09:26:22;;;;;;;15.73;11.10;;;;;;;;;;5014206;28;20604;-55
2023/02/14 09:28:48;;;;;;;17.73;11.70;;;;;;;;;;5017147;28;20273;-56
2023/02/14 09:31:16;;;;;;;13.57;10.67;;;;;;;;;;5020838;28;20198;-55
2023/02/14 09:39:12;;;;;;;16.47;11.57;;;;;;;;;;5018378;28;20264;-55
2023/02/14 09:41:52;;;;;;;16.10;11.80;;;;;;;;;;5012538;28;20220;-54
2023/02/14 09:44:24;;;;;;;14.60;10.27;;;;;;;;;;5013437;28;20182;-55
2023/02/14 09:46:53;;;;;;;14.07;10.23;;;;;;;;;;5015455;28;20217;-55
2023/02/14 09:49:23;;;;;;;15.40;10.90;;;;;;;;;;5014198;28;21818;-55
2023/02/14 09:51:51;;;;;;;15.90;10.93;;;;;;;;;;5012963;28;20186;-55
2023/02/14 09:54:21;;;;;;;13.57;10.57;;;;;;;;;;5016201;28;20214;-55
2023/02/14 09:56:50;;;;;;;15.03;10.73;;;;;;;;;;5018751;28;20289;-55
2023/02/14 09:59:33;;;;;;;13.87;10.43;;;;;;;;;;5015193;28;20198;-55
2023/02/14 10:02:02;;;;;;;15.03;11.50;;;;;;;;;;5015018;28;20617;-55
2023/02/14 10:04:42;;;;;;;16.60;11.37;;;;;;;;;;5023942;28;20230;-56
2023/02/14 10:07:29;;;;;;;15.47;10.03;;;;;;;;;;5021059;28;20320;-55
2023/02/14 10:10:01;;;;;;;12.57;10.40;;;;;;;;;;5019314;28;20550;-55
2023/02/14 10:12:34;;;;;;;15.87;11.13;;;;;;;;;;5012147;28;20529;-55
2023/02/14 10:15:02;;;;;;;15.17;11.90;;;;;;;;;;5018288;28;20288;-54
2023/02/14 10:17:36;;;;;;;15.23;11.53;;;;;;;;;;5016571;28;20181;-55
2023/02/14 10:20:03;;;;;;;13.97;11.13;;;;;;;;;;5012871;28;20178;-55
2023/02/14 10:22:41;;;;;;;12.83;10.00;;;;;;;;;;5018499;28;20208;-54
2023/02/14 10:25:16;;;;;;;14.50;10.20;;;;;;;;;;5020504;28;20280;-55
2023/02/14 10:27:45;;;;;;;14.70;11.70;;;;;;;;;;5022330;28;20656;-54
2023/02/14 10:30:12;;;;;;;17.43;12.30;;;;;;;;;;5019457;28;20650;-55
2023/02/14 10:32:47;;;;;;;13.80;11.13;;;;;;;;;;5015162;28;20210;-55
2023/02/14 10:35:33;;;;;;;12.97;11.23;;;;;;;;;;5016065;28;20683;-55
2023/02/14 10:38:06;;;;;;;19.10;10.80;;;;;;;;;;4985528;28;20247;-55
2023/02/14 10:40:35;;;;;;;14.30;12.07;;;;;;;;;;5015562;28;20204;-54
2023/02/14 10:43:10;;;;;;;17.03;11.23;;;;;;;;;;5021528;28;20184;-55
2023/02/14 10:45:45;;;;;;;13.37;11.33;;;;;;;;;;5019295;28;20232;-55
2023/02/14 10:48:37;;;;;;;15.67;11.17;;;;;;;;;;5019951;28;20185;-55
2023/02/14 10:51:03;;;;;;;15.20;11.13;;;;;;;;;;4989649;28;20194;-55
2023/02/14 10:53:41;;;;;;;19.50;12.07;;;;;;;;;;5015644;28;20220;-55
2023/02/14 10:56:07;;;;;;;15.33;11.13;;;;;;;;;;5019160;28;20220;-55
2023/02/14 10:58:36;;;;;;;18.63;12.67;;;;;;;;;;5020530;28;20193;-55
2023/02/14 11:01:05;;;;;;;13.50;11.33;;;;;;;;;;5023555;28;20175;-55
2023/02/14 11:03:32;;;;;;;18.57;11.83;;;;;;;;;;5020124;28;20371;-56
2023/02/14 11:05:58;;;;;;;16.03;11.63;;;;;;;;;;5012728;28;20181;-54
2023/02/14 11:08:26;;;;;;;16.30;11.27;;;;;;;;;;5012806;28;20193;-55
2023/02/14 11:10:55;;;;;;;17.30;11.47;;;;;;;;;;5014248;28;20189;-55
2023/02/14 11:13:27;;;;;;;14.63;11.27;;;;;;;;;;5021153;28;20220;-53
2023/02/14 11:15:53;;;;;;;16.30;11.60;;;;;;;;;;5022186;28;20258;-55
2023/02/14 11:18:23;;;;;;;15.07;11.30;;;;;;;;;;5002402;28;20579;-55
2023/02/14 11:21:06;;;;;;;14.73;11.20;;;;;;;;;;5019796;28;20174;-55
2023/02/14 11:23:37;;;;;;;15.03;12.23;;;;;;;;;;5018412;28;20174;-54
2023/02/14 11:26:05;;;;;;;13.97;10.93;;;;;;;;;;5016254;28;20190;-55
2023/02/14 11:28:31;;;;;;;14.47;10.87;;;;;;;;;;5022020;28;20178;-54
2023/02/14 11:30:57;;;;;;;13.67;11.07;;;;;;;;;;5018016;28;20208;-55
2023/02/14 11:33:40;;;;;;;15.00;11.57;;;;;;;;;;5029372;28;20189;-54
2023/02/14 11:36:14;;;;;;;14.20;10.70;;;;;;;;;;5018478;28;20648;-54
2023/02/14 11:38:40;;;;;;;14.57;11.07;;;;;;;;;;5019133;28;20175;-55
2023/02/14 11:41:09;;;;;;;13.67;10.97;;;;;;;;;;5020112;28;20244;-55
2023/02/14 11:43:37;;;;;;;12.93;10.97;;;;;;;;;;5019143;28;20705;-54
2023/02/14 11:46:05;;;;;;;13.27;10.17;;;;;;;;;;5019648;28;20519;-55
2023/02/14 11:48:33;;;;;;;12.73;11.03;;;;;;;;;;5022135;28;20193;-55
2023/02/14 11:51:04;;;;;;;12.73;10.80;;;;;;;;;;5022150;28;20264;-55
2023/02/14 11:53:52;;;;;;;13.53;10.77;;;;;;;;;;5018668;28;20186;-55
2023/02/14 11:56:19;;;;;;;16.27;11.23;;;;;;;;;;5017189;28;20202;-55
2023/02/14 11:58:48;;;;;;;13.57;10.13;;;;;;;;;;5018927;28;20192;-55
2023/02/14 12:01:23;;;;;;;14.17;10.83;;;;;;;;;;5018933;28;20261;-55
2023/02/14 12:03:50;;;;;;;14.03;10.90;;;;;;;;;;5013050;28;20228;-55
2023/02/14 12:06:23;;;;;;;12.37;10.60;;;;;;;;;;5019981;28;20280;-55
2023/02/14 12:08:49;;;;;;;15.57;10.57;;;;;;;;;;5024003;28;20681;-55
2023/02/14 12:11:20;;;;;;;14.87;11.13;;;;;;;;;;5022366;28;20605;-55
2023/02/14 12:13:55;;;;;;;12.80;10.93;;;;;;;;;;5018365;28;20561;-55
2023/02/14 12:16:40;;;;;;;15.00;11.00;;;;;;;;;;5024831;28;20181;-56
2023/02/14 12:19:29;;;;;;;14.07;10.83;;;;;;;;;;5024282;28;20190;-55
2023/02/14 12:22:00;;;;;;;11.73;9.33;;;;;;;;;;5017638;28;20233;-55
2023/02/14 12:24:31;;;;;;;14.50;10.97;;;;;;;;;;5023704;28;20352;-54
2023/02/14 12:27:16;;;;;;;13.33;10.37;;;;;;;;;;5021206;28;20189;-55
2023/02/14 12:29:48;;;;;;;15.27;11.37;;;;;;;;;;5018135;28;20216;-55
2023/02/14 12:32:22;;;;;;;12.83;10.00;;;;;;;;;;5021522;28;20198;-55
2023/02/14 12:34:49;;;;;;;13.13;10.77;;;;;;;;;;5017652;28;20216;-55
2023/02/14 12:37:27;;;;;;;15.93;10.43;;;;;;;;;;5022643;28;20243;-55
2023/02/14 12:40:04;;;;;;;13.43;10.47;;;;;;;;;;5022179;28;20184;-56
2023/02/14 12:42:31;;;;;;;13.27;9.87;;;;;;;;;;5017333;28;20182;-56
2023/02/14 12:45:19;;;;;;;12.13;9.93;;;;;;;;;;5018938;28;20218;-56
2023/02/14 12:48:04;;;;;;;13.37;9.97;;;;;;;;;;5022125;28;20189;-55
2023/02/14 12:50:37;;;;;;;13.83;11.13;;;;;;;;;;5019189;28;20227;-55
2023/02/14 12:53:10;;;;;;;11.53;9.83;;;;;;;;;;5026576;28;20186;-55
2023/02/14 12:55:42;;;;;;;10.67;9.53;;;;;;;;;;5019991;28;20267;-55
2023/02/14 12:58:25;;;;;;;13.43;10.60;;;;;;;;;;5017598;28;20888;-56
2023/02/14 13:00:51;;;;;;;12.43;9.60;;;;;;;;;;5023390;28;20219;-55
2023/02/14 13:03:28;;;;;;;15.07;10.73;;;;;;;;;;5018797;28;20680;-55
2023/02/14 13:06:04;;;;;;;13.27;10.17;;;;;;;;;;5019834;28;20212;-55
2023/02/14 13:08:40;;;;;;;12.43;9.93;;;;;;;;;;5018110;28;20225;-56
2023/02/14 13:11:09;;;;;;;11.67;10.10;;;;;;;;;;5019404;28;20272;-55
2023/02/14 13:13:48;;;;;;;13.63;9.80;;;;;;;;;;5022997;28;20218;-55
2023/02/14 13:16:17;;;;;;;13.40;10.27;;;;;;;;;;5020293;28;20220;-54
2023/02/14 13:18:43;;;;;;;13.10;9.90;;;;;;;;;;5019523;28;20243;-55
2023/02/14 13:21:11;;;;;;;12.27;10.57;;;;;;;;;;5019520;28;20182;-55
2023/02/14 13:23:39;;;;;;;11.80;9.63;;;;;;;;;;5023075;28;20206;-56
2023/02/14 13:26:14;;;;;;;11.43;9.40;;;;;;;;;;5018597;28;20213;-55
2023/02/14 13:28:51;;;;;;;12.07;9.97;;;;;;;;;;5024740;28;20181;-55
2023/02/14 13:31:18;;;;;;;12.73;10.07;;;;;;;;;;5021887;28;20209;-55
2023/02/14 13:33:49;;;;;;;11.47;9.53;;;;;;;;;;5019862;28;20213;-55
2023/02/14 13:36:16;;;;;;;11.53;9.33;;;;;;;;;;5016497;28;20188;-55
2023/02/14 13:38:47;;;;;;;11.33;9.33;;;;;;;;;;5024334;28;20182;-56
2023/02/14 13:41:14;;;;;;;12.83;10.47;;;;;;;;;;5012019;28;20629;-54
2023/02/14 13:43:49;;;;;;;12.63;10.07;;;;;;;;;;5018172;28;20189;-56
2023/02/14 13:46:36;;;;;;;13.23;9.67;;;;;;;;;;5020152;28;20244;-56
2023/02/14 13:49:21;;;;;;;11.13;9.47;;;;;;;;;;5019991;28;20566;-56
2023/02/14 13:51:48;;;;;;;11.07;9.33;;;;;;;;;;5014354;28;20182;-55
2023/02/14 13:54:29;;;;;;;12.63;9.70;;;;;;;;;;5018091;28;20222;-54
2023/02/14 13:56:56;;;;;;;15.40;10.13;;;;;;;;;;5016650;28;20280;-55
2023/02/14 13:59:33;;;;;;;11.60;9.60;;;;;;;;;;5017605;28;20660;-55
2023/02/14 14:02:18;;;;;;;12.70;9.90;;;;;;;;;;5024405;28;20207;-55
2023/02/14 14:04:44;;;;;;;12.70;10.17;;;;;;;;;;5018519;28;20242;-55
2023/02/14 14:07:13;;;;;;;15.37;10.40;;;;;;;;;;5018148;28;20177;-55
2023/02/14 14:09:45;;;;;;;11.57;9.90;;;;;;;;;;5019846;28;20646;-55
2023/02/14 14:12:24;;;;;;;13.27;10.47;;;;;;;;;;5018056;28;20273;-56
2023/02/14 14:15:05;;;;;;;11.47;10.27;;;;;;;;;;5022625;28;20217;-54
2023/02/14 14:17:44;;;;;;;12.83;10.47;;;;;;;;;;5098058;27;20285;-55
2023/02/14 14:20:19;;;;;;;14.23;10.13;;;;;;;;;;5079733;28;20215;-55
2023/02/14 14:22:47;;;;;;;12.97;10.17;;;;;;;;;;5077122;28;20175;-55
2023/02/14 14:25:13;;;;;;;10.63;9.37;;;;;;;;;;5077390;28;20180;-55
2023/02/14 14:27:45;;;;;;;12.23;10.07;;;;;;;;;;5078192;28;20733;-55
2023/02/14 14:30:11;;;;;;;12.03;9.60;;;;;;;;;;5083065;28;20302;-55
2023/02/14 14:32:37;;;;;;;15.13;10.13;;;;;;;;;;5079434;28;20666;-55
2023/02/14 14:35:07;;;;;;;10.33;9.10;;;;;;;;;;5087465;28;20198;-55
2023/02/14 14:37:37;;;;;;;13.37;10.10;;;;;;;;;;5082339;28;20707;-55
2023/02/14 14:40:09;;;;;;;11.93;10.63;;;;;;;;;;5079649;28;20175;-55
2023/02/14 14:42:37;;;;;;;12.37;10.43;;;;;;;;;;5076230;28;20890;-55
2023/02/14 14:45:23;;;;;;;13.23;10.37;;;;;;;;;;5077404;28;20544;-54
2023/02/14 14:47:51;;;;;;;11.50;10.27;;;;;;;;;;5092610;28;20538;-55
2023/02/14 14:50:20;;;;;;;11.50;9.70;;;;;;;;;;5082225;28;20644;-55
2023/02/14 14:52:48;;;;;;;12.53;9.17;;;;;;;;;;5080150;28;20578;-55
2023/02/14 14:55:19;;;;;;;12.30;9.90;;;;;;;;;;5076175;28;20199;-55
2023/02/14 14:57:49;;;;;;;11.97;9.63;;;;;;;;;;5070104;28;20180;-55
2023/02/14 15:00:19;;;;;;;12.50;9.90;;;;;;;;;;5074209;28;20209;-55
2023/02/14 15:03:06;;;;;;;11.27;9.43;;;;;;;;;;5070839;28;20189;-54
2023/02/14 15:05:34;;;;;;;13.20;9.30;;;;;;;;;;5069516;28;20331;-55
2023/02/14 15:08:13;;;;;;;13.20;9.80;;;;;;;;;;5074187;28;20180;-56
2023/02/14 15:10:40;;;;;;;11.90;9.37;;;;;;;;;;5072538;28;20181;-55
2023/02/14 15:15:54;;;;;;;11.20;9.17;;;;;;;;;;5074164;28;20592;-55
2023/02/14 15:18:20;;;;;;;13.37;9.63;;;;;;;;;;5071061;28;20187;-55